Silver Lake, Oregon
Current Conditions -  °F | °C
As of 1:35 PM on Friday 19 Dec 2014 (Local Time) from KBDN Reporting Station
Scattered Clouds Scattered Clouds  
Wind Chill: 39°   Ceiling: Unl
Heat Index: 45°   Visibility: 10mi
Dew Point: 30°   Wind: 10mph
Humidity: 57%   Direction: 240°WSW
Pressure: 29.98"   Gusts: NA
Location:  43.13°N, 121.05°W
Report Text: KBDN 192135Z AUTO 24009KT 10SM FEW029 SCT037 SCT048 07/M01 A2998 RMK AO2
Loading
Personal Weather Stations






























Interactive Weather Map New forecast layout! Learn more

10-Day Weather Forecast

Advertisements
Track Severe Weather on mobile